createdAt,value
2018-11-25T00:00:11.900Z,18.62
2018-11-25T00:01:18.550Z,16.17
2018-11-25T00:02:27.521Z,15.72
2018-11-25T00:03:34.308Z,20.60
2018-11-25T00:04:39.241Z,21.95
2018-11-25T00:05:44.164Z,21.35
2018-11-25T00:06:50.371Z,18.20
2018-11-25T00:08:06.991Z,17.92
2018-11-25T00:09:11.670Z,20.08
2018-11-25T00:10:21.318Z,19.23
2018-11-25T00:11:28.563Z,18.92
2018-11-25T00:12:37.825Z,21.80
2018-11-25T00:13:49.690Z,21.52
2018-11-25T00:14:54.128Z,19.82
2018-11-25T00:15:58.909Z,20.65
2018-11-25T00:17:03.382Z,23.47
2018-11-25T00:18:09.083Z,27.50
2018-11-25T00:19:14.353Z,19.07
2018-11-25T00:20:19.591Z,17.87
2018-11-25T00:21:24.553Z,19.12
2018-11-25T00:22:29.267Z,20.40
2018-11-25T00:23:33.910Z,19.32
2018-11-25T00:24:39.174Z,23.00
2018-11-25T00:25:43.719Z,19.82
2018-11-25T00:26:51.161Z,21.42
2018-11-25T00:28:01.186Z,21.15
2018-11-25T00:29:07.459Z,22.52
2018-11-25T00:30:15.780Z,21.40
2018-11-25T00:31:20.337Z,20.35
2018-11-25T00:32:24.712Z,19.62
2018-11-25T00:33:29.689Z,23.67
2018-11-25T00:34:33.917Z,23.07
2018-11-25T00:35:38.421Z,19.75
2018-11-25T00:36:45.140Z,23.90
2018-11-25T00:37:51.898Z,18.80
2018-11-25T00:38:59.261Z,18.70
2018-11-25T00:40:10.239Z,23.30
2018-11-25T00:41:14.812Z,25.70
2018-11-25T00:42:21.690Z,22.60
2018-11-25T00:43:26.300Z,22.10
2018-11-25T00:44:32.277Z,21.50
2018-11-25T00:45:50.178Z,23.27
2018-11-25T00:46:54.266Z,19.60
2018-11-25T00:47:58.942Z,23.32
2018-11-25T00:49:03.923Z,22.10
2018-11-25T00:50:17.831Z,22.10
2018-11-25T00:51:22.534Z,22.58
2018-11-25T00:52:26.542Z,19.50
2018-11-25T00:53:31.806Z,23.80
2018-11-25T00:54:36.451Z,23.15
2018-11-25T00:55:44.008Z,22.40
2018-11-25T00:56:48.378Z,23.90
2018-11-25T00:57:52.722Z,27.10
2018-11-25T00:58:56.674Z,22.67
2018-11-25T01:00:01.961Z,24.87
2018-11-25T01:01:07.259Z,22.60
2018-11-25T01:02:11.369Z,26.52
2018-11-25T01:03:15.600Z,21.77
2018-11-25T01:04:19.590Z,23.77
2018-11-25T01:05:24.040Z,21.25
2018-11-25T01:06:28.738Z,26.15
2018-11-25T01:07:32.802Z,23.77
2018-11-25T01:08:37.035Z,22.40
2018-11-25T01:09:40.998Z,23.50
2018-11-25T01:10:45.034Z,24.55
2018-11-25T01:11:49.062Z,24.92
2018-11-25T01:12:53.702Z,22.45
2018-11-25T01:13:57.618Z,31.48
2018-11-25T01:15:02.415Z,25.50
2018-11-25T01:16:08.714Z,24.35
2018-11-25T01:17:12.835Z,23.15
2018-11-25T01:18:16.713Z,28.25
2018-11-25T01:19:21.217Z,25.57
2018-11-25T01:20:25.718Z,22.37
2018-11-25T01:21:30.721Z,24.32
2018-11-25T01:22:34.722Z,23.22
2018-11-25T01:23:38.653Z,25.43
2018-11-25T01:24:44.065Z,22.80
2018-11-25T01:25:48.477Z,24.10
2018-11-25T01:26:52.971Z,23.92
2018-11-25T01:27:58.083Z,25.25
2018-11-25T01:29:02.164Z,23.73
2018-11-25T01:30:09.734Z,21.57
2018-11-25T01:31:14.035Z,23.75
2018-11-25T01:32:18.612Z,21.50
2018-11-25T01:33:22.778Z,24.23
2018-11-25T01:34:26.776Z,25.45
2018-11-25T01:35:32.097Z,23.73
2018-11-25T01:36:36.093Z,24.30
2018-11-25T01:37:40.200Z,28.25
2018-11-25T01:38:44.246Z,26.82
2018-11-25T01:39:48.294Z,22.10
2018-11-25T01:40:52.207Z,27.05
2018-11-25T01:41:55.763Z,24.35
2018-11-25T01:42:59.758Z,24.27
2018-11-25T01:44:04.364Z,25.77
2018-11-25T01:45:09.901Z,27.27
2018-11-25T01:46:17.809Z,25.20
2018-11-25T01:47:21.801Z,34.05
2018-11-25T01:48:26.149Z,25.08
2018-11-25T01:49:30.124Z,27.65
2018-11-25T01:50:34.292Z,27.70
2018-11-25T01:51:38.812Z,21.85
2018-11-25T01:52:42.798Z,27.62
2018-11-25T01:53:46.850Z,26.42
2018-11-25T01:54:51.069Z,28.40
2018-11-25T01:55:55.059Z,23.67
2018-11-25T01:56:59.542Z,27.42
2018-11-25T01:58:10.418Z,32.20
2018-11-25T01:59:15.898Z,35.20
2018-11-25T02:00:21.648Z,28.15
2018-11-25T02:01:27.465Z,31.52
2018-11-25T02:02:34.502Z,28.60
2018-11-25T02:03:38.693Z,27.75
2018-11-25T02:04:42.761Z,23.92
2018-11-25T02:05:46.739Z,28.17
2018-11-25T02:06:50.905Z,29.42
2018-11-25T02:07:54.920Z,25.52
2018-11-25T02:09:00.028Z,25.12
2018-11-25T02:10:07.403Z,26.30
2018-11-25T02:11:11.330Z,26.17
2018-11-25T02:12:15.366Z,25.05
2018-11-25T02:13:19.974Z,29.07
2018-11-25T02:14:24.881Z,26.45
2018-11-25T02:15:28.961Z,31.37
2018-11-25T02:16:33.409Z,24.18
2018-11-25T02:17:38.663Z,29.35
2018-11-25T02:18:42.946Z,26.87
2018-11-25T02:19:49.095Z,28.55
2018-11-25T02:20:54.508Z,24.52
2018-11-25T02:21:58.724Z,28.62
2018-11-25T02:23:03.369Z,28.50
2018-11-25T02:24:07.455Z,32.93
2018-11-25T02:25:12.727Z,28.52
2018-11-25T02:26:16.708Z,26.25
2018-11-25T02:27:20.806Z,27.93
2018-11-25T02:28:24.870Z,29.37
2018-11-25T02:29:29.318Z,31.68
2018-11-25T02:30:33.475Z,24.27
2018-11-25T02:31:37.573Z,25.45
2018-11-25T02:32:41.768Z,31.42
2018-11-25T02:33:45.803Z,27.70
2018-11-25T02:34:49.881Z,33.23
2018-11-25T02:35:54.234Z,28.95
2018-11-25T02:37:45.264Z,25.52
2018-11-25T02:38:49.461Z,27.42
2018-11-25T02:39:53.560Z,27.20
2018-11-25T02:40:58.065Z,29.90
2018-11-25T02:42:02.806Z,29.45
2018-11-25T02:43:07.818Z,29.23
2018-11-25T02:44:11.777Z,24.65
2018-11-25T02:45:18.643Z,26.15
2018-11-25T02:46:22.855Z,29.40
2018-11-25T02:47:26.834Z,26.82
2018-11-25T02:48:31.210Z,25.57
2018-11-25T02:49:35.371Z,28.98
2018-11-25T02:50:39.627Z,25.65
2018-11-25T02:51:43.674Z,31.25
2018-11-25T02:52:47.597Z,27.87
2018-11-25T02:53:51.950Z,32.15
2018-11-25T02:54:56.528Z,27.48
2018-11-25T02:56:00.483Z,29.23
2018-11-25T02:57:05.508Z,27.70
2018-11-25T02:58:09.537Z,28.25
2018-11-25T02:59:13.739Z,26.25
2018-11-25T03:00:19.344Z,27.80
2018-11-25T03:01:23.491Z,24.95
2018-11-25T03:02:27.670Z,27.82
2018-11-25T03:03:32.492Z,29.40
2018-11-25T03:04:39.269Z,28.52
2018-11-25T03:05:43.535Z,29.82
2018-11-25T03:06:48.154Z,30.97
2018-11-25T03:07:52.530Z,28.25
2018-11-25T03:08:56.512Z,26.85
2018-11-25T03:10:00.493Z,26.07
2018-11-25T03:11:04.593Z,31.25
2018-11-25T03:12:08.583Z,26.70
2018-11-25T03:13:13.207Z,27.58
2018-11-25T03:14:17.736Z,26.62
2018-11-25T03:15:21.778Z,26.73
2018-11-25T03:16:26.667Z,27.37
2018-11-25T03:17:30.745Z,29.55
2018-11-25T03:18:34.727Z,31.05
2018-11-25T03:19:39.592Z,27.58
2018-11-25T03:20:43.858Z,30.17
2018-11-25T03:21:48.136Z,26.73
2018-11-25T03:22:52.114Z,24.12
2018-11-25T03:23:56.156Z,25.32
2018-11-25T03:25:00.388Z,30.65
2018-11-25T03:26:04.967Z,29.48
2018-11-25T03:27:10.079Z,27.95
2018-11-25T03:28:14.718Z,29.75
2018-11-25T03:29:19.187Z,28.23
2018-11-25T03:30:23.575Z,27.82
2018-11-25T03:31:27.674Z,28.75
2018-11-25T03:32:32.251Z,28.75
2018-11-25T03:33:36.152Z,29.57
2018-11-25T03:34:40.318Z,30.85
2018-11-25T03:35:44.868Z,28.00
2018-11-25T03:36:49.222Z,28.23
2018-11-25T03:37:53.301Z,29.72
2018-11-25T03:38:57.268Z,28.70
2018-11-25T03:40:01.219Z,27.25
2018-11-25T03:41:05.308Z,30.60
2018-11-25T03:42:09.640Z,29.55
2018-11-25T03:43:13.910Z,26.80
2018-11-25T03:44:18.007Z,29.10
2018-11-25T03:45:22.760Z,30.35
2018-11-25T03:46:26.835Z,34.13
2018-11-25T03:47:30.855Z,26.60
2018-11-25T03:48:34.839Z,34.33
2018-11-25T03:49:38.822Z,29.45
2018-11-25T03:50:43.354Z,29.95
2018-11-25T03:51:47.258Z,30.77
2018-11-25T03:52:51.288Z,25.60
2018-11-25T03:53:55.256Z,28.05
2018-11-25T03:54:59.762Z,25.08
2018-11-25T03:56:03.694Z,27.25
2018-11-25T03:57:07.654Z,35.70
2018-11-25T03:58:11.553Z,29.10
2018-11-25T03:59:15.473Z,26.87
2018-11-25T04:00:21.105Z,28.67
2018-11-25T04:01:25.059Z,26.37
2018-11-25T04:02:28.948Z,32.73
2018-11-25T04:03:32.905Z,28.23
2018-11-25T04:04:36.905Z,29.75
2018-11-25T04:05:40.810Z,28.12
2018-11-25T04:06:45.211Z,30.10
2018-11-25T04:07:49.108Z,27.07
2018-11-25T04:08:53.043Z,28.02
2018-11-25T04:09:57.559Z,26.80
2018-11-25T04:11:01.546Z,28.95
2018-11-25T04:12:06.262Z,28.20
2018-11-25T04:13:10.188Z,29.10
2018-11-25T04:14:14.241Z,29.65
2018-11-25T04:15:19.007Z,28.80
2018-11-25T04:16:22.958Z,28.55
2018-11-25T04:17:26.905Z,29.92
2018-11-25T04:18:30.835Z,29.10
2018-11-25T04:19:34.700Z,30.40
2018-11-25T04:20:38.550Z,27.25
2018-11-25T04:21:42.424Z,25.30
2018-11-25T04:22:46.702Z,29.55
2018-11-25T04:23:51.705Z,28.52
2018-11-25T04:24:56.684Z,26.35
2018-11-25T04:26:00.677Z,27.37
2018-11-25T04:27:04.639Z,33.55
2018-11-25T04:28:08.901Z,26.97
2018-11-25T04:29:12.828Z,29.95
2018-11-25T04:30:19.432Z,30.43
2018-11-25T04:31:23.337Z,25.92
2018-11-25T04:32:27.261Z,27.20
2018-11-25T04:33:31.320Z,26.15
2018-11-25T04:34:35.443Z,27.22
2018-11-25T04:35:39.469Z,26.27
2018-11-25T04:36:43.524Z,32.60
2018-11-25T04:37:47.433Z,31.33
2018-11-25T04:38:51.384Z,34.25
2018-11-25T04:39:55.260Z,28.50
2018-11-25T04:40:59.170Z,31.40
2018-11-25T04:42:03.133Z,31.07
2018-11-25T04:43:07.169Z,32.48
2018-11-25T04:44:11.186Z,30.70
2018-11-25T04:45:15.815Z,29.30
2018-11-25T04:46:20.019Z,38.17
2018-11-25T04:47:24.015Z,27.50
2018-11-25T04:48:27.902Z,30.05
2018-11-25T04:49:31.835Z,31.37
2018-11-25T04:50:35.838Z,30.60
2018-11-25T04:51:39.958Z,28.83
2018-11-25T04:52:44.471Z,31.33
2018-11-25T04:53:48.682Z,29.30
2018-11-25T04:54:52.629Z,32.42
2018-11-25T04:55:56.567Z,29.05
2018-11-25T04:57:00.437Z,29.95
2018-11-25T04:58:04.470Z,27.35
2018-11-25T04:59:08.823Z,28.20
2018-11-25T05:00:14.606Z,32.42
2018-11-25T05:01:18.519Z,32.83
2018-11-25T05:02:22.982Z,32.03
2018-11-25T05:03:26.930Z,29.30
2018-11-25T05:04:30.893Z,29.18
2018-11-25T05:05:35.087Z,26.65
2018-11-25T05:06:39.257Z,35.75
2018-11-25T05:07:43.190Z,31.68
2018-11-25T05:08:47.130Z,31.62
2018-11-25T05:09:51.297Z,34.18
2018-11-25T05:10:59.238Z,28.45
2018-11-25T05:12:04.283Z,29.65
2018-11-25T05:13:08.321Z,29.37
2018-11-25T05:14:12.214Z,31.23
2018-11-25T05:15:18.150Z,29.57
2018-11-25T05:16:22.143Z,34.27
2018-11-25T05:17:26.130Z,31.55
2018-11-25T05:18:30.802Z,33.45
2018-11-25T05:19:34.755Z,32.03
2018-11-25T05:20:39.714Z,33.13
2018-11-25T05:21:44.540Z,34.83
2018-11-25T05:22:50.345Z,39.42
2018-11-25T05:23:54.842Z,36.65
2018-11-25T05:24:58.953Z,36.95
2018-11-25T05:26:02.923Z,35.48
2018-11-25T05:27:07.388Z,39.03
2018-11-25T05:28:11.359Z,42.53
2018-11-25T05:29:15.949Z,40.45
2018-11-25T05:30:21.000Z,37.23
2018-11-25T05:31:25.164Z,35.95
2018-11-25T05:32:29.385Z,36.17
2018-11-25T05:33:33.910Z,43.33
2018-11-25T05:34:39.820Z,42.67
2018-11-25T05:35:44.426Z,43.48
2018-11-25T05:36:48.429Z,47.58
2018-11-25T05:37:52.379Z,40.43
2018-11-25T05:38:56.281Z,43.55
2018-11-25T05:40:00.174Z,45.80
2018-11-25T05:41:04.343Z,40.98
2018-11-25T05:42:08.335Z,45.08
2018-11-25T05:43:12.284Z,44.48
2018-11-25T05:44:16.306Z,41.68
2018-11-25T05:45:20.630Z,44.77
2018-11-25T05:46:24.656Z,42.55
2018-11-25T05:47:28.559Z,37.88
2018-11-25T05:48:32.456Z,45.23
2018-11-25T05:49:36.794Z,36.88
2018-11-25T05:50:40.374Z,43.95
2018-11-25T05:51:44.365Z,40.73
2018-11-25T05:52:48.308Z,37.00
2018-11-25T05:53:52.247Z,36.95
2018-11-25T05:54:56.160Z,40.67
2018-11-25T05:56:00.131Z,34.08
2018-11-25T05:57:04.505Z,34.05
2018-11-25T05:58:09.361Z,38.80
2018-11-25T05:59:13.324Z,39.20
2018-11-25T06:00:20.000Z,37.10
2018-11-25T06:01:23.935Z,33.35
2018-11-25T06:02:28.364Z,35.95
2018-11-25T06:03:32.229Z,38.70
2018-11-25T06:04:36.223Z,37.35
2018-11-25T06:05:40.229Z,41.68
2018-11-25T06:06:44.162Z,39.73
2018-11-25T06:07:48.333Z,40.50
2018-11-25T06:08:52.296Z,35.48
2018-11-25T06:09:56.697Z,37.73
2018-11-25T06:11:01.454Z,38.13
2018-11-25T06:12:05.531Z,36.68
2018-11-25T06:13:09.513Z,36.03
2018-11-25T06:14:13.476Z,38.38
2018-11-25T06:15:17.429Z,40.40
2018-11-25T06:16:21.705Z,41.75
2018-11-25T06:17:26.381Z,38.50
2018-11-25T06:18:30.338Z,38.13
2018-11-25T06:19:34.234Z,36.68
2018-11-25T06:20:38.131Z,37.05
2018-11-25T06:21:42.096Z,42.27
2018-11-25T06:22:46.404Z,40.88
2018-11-25T06:23:50.340Z,37.63
2018-11-25T06:24:54.302Z,40.20
2018-11-25T06:25:58.201Z,35.68
2018-11-25T06:27:02.723Z,41.55
2018-11-25T06:28:06.846Z,37.23
2018-11-25T06:29:11.256Z,39.88
2018-11-25T06:30:18.896Z,37.05
2018-11-25T06:31:23.088Z,37.98
2018-11-25T06:32:26.997Z,36.65
2018-11-25T06:33:31.020Z,37.90
2018-11-25T06:34:49.941Z,36.63
2018-11-25T06:35:53.825Z,34.48
2018-11-25T06:36:57.741Z,33.20
2018-11-25T06:38:01.682Z,38.55
2018-11-25T06:39:08.660Z,36.05
2018-11-25T06:40:16.255Z,39.45
2018-11-25T06:41:20.202Z,35.45
2018-11-25T06:42:24.189Z,42.90
2018-11-25T06:43:28.295Z,38.60
2018-11-25T06:44:34.314Z,37.20
2018-11-25T06:45:39.043Z,39.03
2018-11-25T06:46:43.649Z,37.28
2018-11-25T06:47:47.613Z,40.43
2018-11-25T06:48:55.068Z,33.78
2018-11-25T06:49:58.325Z,33.08
2018-11-25T06:51:02.251Z,36.33
2018-11-25T06:52:08.537Z,34.60
2018-11-25T06:53:19.429Z,37.10
2018-11-25T06:54:23.321Z,36.90
2018-11-25T06:55:27.930Z,39.65
2018-11-25T06:56:34.693Z,33.10
2018-11-25T06:57:40.722Z,35.33
2018-11-25T06:58:45.687Z,40.73
2018-11-25T06:59:51.664Z,42.23
2018-11-25T07:00:55.491Z,44.88
2018-11-25T07:02:00.495Z,40.30
2018-11-25T07:03:10.428Z,43.90
2018-11-25T07:04:16.212Z,41.95
2018-11-25T07:05:20.736Z,39.85
2018-11-25T07:06:29.206Z,45.05
2018-11-25T07:07:34.235Z,54.55
2018-11-25T07:08:39.409Z,41.00
2018-11-25T07:09:55.031Z,45.83
2018-11-25T07:11:01.702Z,45.90
2018-11-25T07:12:07.358Z,48.08
2018-11-25T07:13:16.657Z,62.88
2018-11-25T07:14:22.176Z,45.17
2018-11-25T07:15:34.140Z,48.25
2018-11-25T07:16:39.478Z,45.67
2018-11-25T07:17:54.745Z,51.63
2018-11-25T07:19:05.630Z,54.38
2018-11-25T07:20:19.073Z,44.65
2018-11-25T07:21:26.601Z,57.40
2018-11-25T07:22:31.551Z,47.85
2018-11-25T07:23:35.774Z,52.48
2018-11-25T07:24:40.784Z,46.50
2018-11-25T07:25:45.127Z,45.03
2018-11-25T07:26:49.893Z,44.88
2018-11-25T07:27:55.467Z,46.80
2018-11-25T07:29:06.843Z,50.88
2018-11-25T07:30:19.352Z,48.90
2018-11-25T07:31:25.617Z,46.25
2018-11-25T07:32:33.673Z,49.83
2018-11-25T07:33:47.657Z,54.35
2018-11-25T07:34:51.688Z,50.88
2018-11-25T07:35:55.983Z,56.73
2018-11-25T07:37:07.235Z,46.75
2018-11-25T07:38:21.543Z,48.15
2018-11-25T07:39:40.349Z,49.18
2018-11-25T07:40:57.203Z,45.03
2018-11-25T07:42:02.104Z,42.60
2018-11-25T07:43:06.451Z,49.23
2018-11-25T07:44:10.369Z,49.42
2018-11-25T07:45:19.331Z,53.52
2018-11-25T07:46:23.350Z,52.55
2018-11-25T07:47:27.720Z,49.50
2018-11-25T07:48:32.453Z,57.45
2018-11-25T07:49:40.184Z,58.10
2018-11-25T07:50:45.394Z,57.85
2018-11-25T07:51:50.054Z,48.52
2018-11-25T07:52:54.488Z,55.28
2018-11-25T07:54:00.873Z,55.30
2018-11-25T07:55:07.231Z,47.60
2018-11-25T07:56:11.278Z,47.58
2018-11-25T07:57:15.350Z,54.10
2018-11-25T07:58:19.777Z,49.48
2018-11-25T07:59:24.238Z,49.50
2018-11-25T08:00:28.634Z,48.02
2018-11-25T08:01:33.883Z,48.08
2018-11-25T08:02:41.661Z,50.17
2018-11-25T08:03:42.216Z,53.15
2018-11-25T08:04:47.014Z,56.18
2018-11-25T08:05:51.282Z,55.63
2018-11-25T08:07:01.281Z,53.25
2018-11-25T08:08:13.318Z,49.50
2018-11-25T08:09:18.190Z,52.27
2018-11-25T08:10:23.877Z,54.98
2018-11-25T08:11:30.759Z,52.00
2018-11-25T08:12:36.581Z,54.33
2018-11-25T08:13:40.765Z,46.88
2018-11-25T08:14:46.994Z,51.58
2018-11-25T08:15:53.236Z,55.80
2018-11-25T08:16:57.710Z,50.58
2018-11-25T08:18:03.698Z,59.27
2018-11-25T08:19:08.431Z,57.13
2018-11-25T08:20:17.310Z,57.67
2018-11-25T08:21:22.042Z,52.35
2018-11-25T08:22:26.317Z,55.45
2018-11-25T08:23:31.012Z,46.88
2018-11-25T08:24:38.349Z,46.33
2018-11-25T08:25:43.795Z,54.05
2018-11-25T08:26:54.872Z,50.67
2018-11-25T08:28:05.771Z,52.27
2018-11-25T08:29:12.843Z,54.35
2018-11-25T08:30:22.693Z,52.15
2018-11-25T08:31:27.142Z,53.80
2018-11-25T08:32:31.331Z,52.67
2018-11-25T08:33:35.429Z,57.40
2018-11-25T08:34:43.161Z,59.45
2018-11-25T08:35:54.869Z,55.05
2018-11-25T08:36:59.032Z,52.70
2018-11-25T08:38:03.131Z,54.23
2018-11-25T08:39:09.193Z,52.48
2018-11-25T08:40:16.205Z,60.63
2018-11-25T08:41:20.696Z,54.42
2018-11-25T08:42:24.769Z,52.33
2018-11-25T08:43:29.115Z,55.03
2018-11-25T08:44:33.251Z,54.35
2018-11-25T08:45:37.289Z,51.90
2018-11-25T08:46:50.091Z,52.75
2018-11-25T08:47:55.433Z,53.65
2018-11-25T08:49:09.155Z,54.30
2018-11-25T08:50:17.875Z,55.92
2018-11-25T08:51:22.999Z,48.75
2018-11-25T08:52:29.356Z,51.83
2018-11-25T08:53:34.659Z,57.50
2018-11-25T08:54:38.676Z,50.25
2018-11-25T08:55:44.147Z,56.37
2018-11-25T08:56:48.209Z,48.87
2018-11-25T08:57:52.307Z,54.35
2018-11-25T08:58:56.778Z,56.25
2018-11-25T09:00:01.450Z,49.23
2018-11-25T09:01:07.719Z,51.55
2018-11-25T09:02:11.801Z,58.23
2018-11-25T09:03:16.801Z,53.55
2018-11-25T09:04:25.384Z,51.25
2018-11-25T09:05:34.938Z,51.33
2018-11-25T09:06:50.828Z,56.68
2018-11-25T09:07:57.118Z,51.00
2018-11-25T09:09:04.768Z,51.33
2018-11-25T09:10:20.910Z,56.83
2018-11-25T09:11:28.157Z,56.73
2018-11-25T09:12:32.754Z,47.93
2018-11-25T09:13:38.306Z,55.63
2018-11-25T09:14:43.309Z,52.00
2018-11-25T09:15:48.158Z,59.60
2018-11-25T09:16:52.727Z,50.12
2018-11-25T09:17:58.334Z,64.55
2018-11-25T09:19:02.413Z,53.55
2018-11-25T09:20:14.201Z,59.13
2018-11-25T09:21:18.285Z,56.15
2018-11-25T09:22:24.497Z,51.00
2018-11-25T09:23:30.269Z,57.27
2018-11-25T09:24:35.065Z,60.48
2018-11-25T09:25:42.298Z,62.25
2018-11-25T09:26:48.454Z,59.13
2018-11-25T09:27:52.560Z,59.08
2018-11-25T09:29:01.220Z,68.45
2018-11-25T09:30:41.822Z,55.95
2018-11-25T09:31:48.266Z,59.38
2018-11-25T09:32:53.610Z,58.78
2018-11-25T09:34:03.700Z,55.08
2018-11-25T09:35:09.669Z,58.60
2018-11-25T09:36:16.261Z,60.50
2018-11-25T09:37:21.161Z,55.75
2018-11-25T09:38:26.124Z,52.30
2018-11-25T09:39:44.622Z,56.05
2018-11-25T09:40:49.328Z,59.90
2018-11-25T09:41:54.903Z,61.00
2018-11-25T09:43:00.469Z,54.98
2018-11-25T09:44:10.056Z,80.53
2018-11-25T09:45:18.397Z,64.62
2018-11-25T09:46:31.197Z,60.85
2018-11-25T09:48:59.764Z,74.67
2018-11-25T09:50:06.154Z,62.43
2018-11-25T09:51:17.477Z,61.58
2018-11-25T09:52:40.548Z,63.92
2018-11-25T09:53:56.784Z,52.85
2018-11-25T09:55:21.429Z,59.95
2018-11-25T09:56:43.647Z,55.35
2018-11-25T09:57:51.721Z,56.10
2018-11-25T09:58:57.181Z,59.33
2018-11-25T10:00:02.007Z,52.80
2018-11-25T10:01:07.554Z,61.25
2018-11-25T10:02:15.096Z,62.48
2018-11-25T10:03:21.482Z,66.15
2018-11-25T10:04:26.063Z,62.58
2018-11-25T10:05:38.415Z,56.15
2018-11-25T10:06:43.660Z,48.92
2018-11-25T10:07:52.336Z,59.85
2018-11-25T10:09:04.341Z,58.65
2018-11-25T10:10:16.720Z,77.00
2018-11-25T10:11:23.891Z,60.98
2018-11-25T10:12:43.924Z,61.70
2018-11-25T10:13:48.747Z,69.25
2018-11-25T10:14:52.673Z,64.92
2018-11-25T10:17:11.803Z,55.50
2018-11-25T10:18:17.167Z,58.80
2018-11-25T10:19:21.117Z,70.22
2018-11-25T10:20:29.343Z,65.95
2018-11-25T10:21:33.558Z,71.33
2018-11-25T10:22:40.096Z,67.78
2018-11-25T10:23:44.780Z,66.22
2018-11-25T10:24:48.738Z,72.40
2018-11-25T10:25:55.077Z,77.45
2018-11-25T10:26:59.456Z,74.82
2018-11-25T10:28:04.807Z,66.07
2018-11-25T10:29:10.733Z,68.10
2018-11-25T10:30:32.566Z,70.08
2018-11-25T10:31:45.225Z,73.37
2018-11-25T10:32:56.342Z,74.53
2018-11-25T10:34:02.264Z,83.72
2018-11-25T10:35:14.766Z,76.25
2018-11-25T10:36:19.686Z,69.77
2018-11-25T10:37:25.077Z,80.45
2018-11-25T10:38:29.781Z,80.62
2018-11-25T10:39:44.399Z,74.95
2018-11-25T10:42:28.188Z,71.40
2018-11-25T10:43:33.626Z,86.40
2018-11-25T10:44:41.168Z,83.55
2018-11-25T10:45:45.684Z,80.90
2018-11-25T10:46:59.211Z,84.32
2018-11-25T10:48:06.263Z,72.17
2018-11-25T10:49:17.137Z,84.80
2018-11-25T10:50:21.636Z,82.02
2018-11-25T10:51:25.921Z,91.63
2018-11-25T10:52:30.811Z,84.07
2018-11-25T10:53:38.744Z,82.27
2018-11-25T10:54:43.179Z,89.92
2018-11-25T10:55:47.419Z,80.03
2018-11-25T10:56:52.985Z,89.28
2018-11-25T10:57:57.994Z,78.33
2018-11-25T10:59:10.436Z,74.55
2018-11-25T11:00:28.423Z,84.35
2018-11-25T11:01:56.551Z,92.67
2018-11-25T11:03:08.726Z,90.38
2018-11-25T11:04:15.408Z,98.55
2018-11-25T11:05:27.297Z,102.50
2018-11-25T11:06:37.437Z,98.37
2018-11-25T11:07:46.271Z,85.75
2018-11-25T11:09:28.246Z,92.95
2018-11-25T11:10:39.177Z,98.33
2018-11-25T11:11:43.187Z,95.05
2018-11-25T11:12:49.130Z,100.22
2018-11-25T11:13:57.013Z,86.80
2018-11-25T11:15:02.389Z,83.07
2018-11-25T11:16:08.443Z,96.92
2018-11-25T11:17:14.661Z,125.72
2018-11-25T11:18:20.515Z,92.00
2018-11-25T11:19:25.063Z,106.00
2018-11-25T11:20:29.637Z,98.45
2018-11-25T11:21:36.191Z,99.28
2018-11-25T11:26:06.651Z,112.67
2018-11-25T11:27:08.624Z,105.83
2018-11-25T11:28:13.741Z,106.07
2018-11-25T11:29:19.445Z,96.35
2018-11-25T11:30:29.371Z,118.30
2018-11-25T11:31:34.631Z,110.88
2018-11-25T11:32:43.516Z,112.70
2018-11-25T11:34:13.340Z,91.20
2018-11-25T11:35:21.994Z,111.40
2018-11-25T11:36:27.219Z,88.40
2018-11-25T11:37:32.752Z,103.20
2018-11-25T11:38:38.558Z,100.33
2018-11-25T11:39:44.896Z,96.53
2018-11-25T11:40:49.657Z,97.75
2018-11-25T11:41:53.835Z,100.53
2018-11-25T11:42:58.102Z,109.32
2018-11-25T11:44:03.338Z,110.68
2018-11-25T11:45:10.915Z,112.52
2018-11-25T11:46:16.768Z,109.55
2018-11-25T11:47:21.649Z,105.52
2018-11-25T11:48:27.667Z,115.47
2018-11-25T11:49:35.718Z,108.63
2018-11-25T11:50:40.035Z,114.75
2018-11-25T11:51:46.301Z,107.45
2018-11-25T11:52:51.186Z,109.03
2018-11-25T11:53:55.761Z,96.55
2018-11-25T11:55:00.693Z,97.95
2018-11-25T11:56:05.580Z,104.65
2018-11-25T11:57:11.115Z,103.00
2018-11-25T11:58:17.200Z,107.90
2018-11-25T11:59:22.665Z,111.92
2018-11-25T12:00:32.273Z,120.28
2018-11-25T12:01:38.983Z,105.45
2018-11-25T12:02:44.336Z,97.45
2018-11-25T12:03:48.389Z,99.67
2018-11-25T12:04:55.030Z,97.25
2018-11-25T12:05:59.634Z,94.72
2018-11-25T12:07:29.352Z,95.32
2018-11-25T12:08:38.372Z,95.50
2018-11-25T12:09:42.900Z,109.85
2018-11-25T12:11:14.783Z,112.42
2018-11-25T12:12:19.239Z,114.95
2018-11-25T12:13:26.898Z,110.48
2018-11-25T12:14:39.253Z,101.53
2018-11-25T12:15:56.458Z,100.22
2018-11-25T12:17:10.302Z,79.42
2018-11-25T12:18:22.053Z,91.75
2018-11-25T12:21:36.680Z,89.22
2018-11-25T12:23:07.289Z,89.07
2018-11-25T12:24:21.893Z,106.32
2018-11-25T12:25:29.543Z,83.33
2018-11-25T12:26:39.175Z,108.45
2018-11-25T12:27:52.544Z,82.35
2018-11-25T12:29:20.465Z,93.05
2018-11-25T12:32:57.995Z,91.63
2018-11-25T12:35:59.584Z,96.20
2018-11-25T12:37:10.337Z,83.10
2018-11-25T12:38:27.029Z,100.62
2018-11-25T12:39:34.146Z,89.80
2018-11-25T12:40:42.354Z,90.12
2018-11-25T12:41:46.897Z,89.95
2018-11-25T12:42:55.096Z,91.87
2018-11-25T12:43:59.415Z,88.65
2018-11-25T12:45:04.254Z,90.40
2018-11-25T12:46:08.281Z,103.32
2018-11-25T12:48:15.204Z,90.90
2018-11-25T12:49:20.049Z,100.72
2018-11-25T12:50:26.821Z,98.03
2018-11-25T12:51:32.639Z,96.90
2018-11-25T12:52:36.823Z,96.32
2018-11-25T12:53:40.921Z,108.22
2018-11-25T12:54:45.511Z,98.72
2018-11-25T12:55:50.226Z,99.70
2018-11-25T12:56:55.275Z,87.27
2018-11-25T12:58:00.793Z,88.12
2018-11-25T12:59:06.508Z,102.10
2018-11-25T13:00:37.270Z,109.85
2018-11-25T13:01:41.294Z,93.30
2018-11-25T13:02:47.426Z,111.85
2018-11-25T13:03:54.312Z,99.60
2018-11-25T13:05:00.527Z,89.97
2018-11-25T13:06:04.982Z,103.72
2018-11-25T13:07:10.133Z,97.60
2018-11-25T13:08:15.580Z,104.90
2018-11-25T13:09:25.245Z,102.90
2018-11-25T13:10:32.693Z,97.02
2018-11-25T13:11:38.377Z,108.67
2018-11-25T13:12:53.512Z,103.60
2018-11-25T13:14:02.211Z,104.83
2018-11-25T13:15:07.654Z,114.62
2018-11-25T13:16:12.835Z,165.12
2018-11-25T13:17:18.681Z,187.45
2018-11-25T13:18:23.154Z,159.60
2018-11-25T13:19:30.153Z,126.85
2018-11-25T13:20:34.338Z,110.78
2018-11-25T13:21:39.191Z,102.00
2018-11-25T13:22:51.055Z,99.05
2018-11-25T13:25:20.228Z,86.70
2018-11-25T13:26:28.244Z,101.25
2018-11-25T13:27:33.191Z,116.45
2018-11-25T13:28:38.523Z,98.55
2018-11-25T13:29:46.750Z,109.32
2018-11-25T13:30:51.400Z,109.63
2018-11-25T13:32:00.557Z,97.75
2018-11-25T13:33:09.704Z,111.12
2018-11-25T13:34:15.731Z,112.00
2018-11-25T13:35:50.972Z,89.65
2018-11-25T13:38:16.182Z,109.37
2018-11-25T13:39:33.085Z,142.22
2018-11-25T13:40:49.478Z,145.65
2018-11-25T13:42:07.123Z,142.05
2018-11-25T13:43:11.631Z,119.37
2018-11-25T13:44:16.481Z,100.02
2018-11-25T13:45:20.654Z,109.30
2018-11-25T13:46:26.999Z,95.17
2018-11-25T13:47:32.425Z,99.37
2018-11-25T13:48:37.233Z,104.25
2018-11-25T13:49:41.635Z,102.00
2018-11-25T13:50:46.779Z,80.35
2018-11-25T13:51:51.894Z,93.22
2018-11-25T13:52:56.776Z,111.52
2018-11-25T13:54:01.291Z,98.20
2018-11-25T13:55:08.850Z,98.05
2018-11-25T13:56:13.338Z,102.60
2018-11-25T13:57:20.314Z,100.75
2018-11-25T13:58:26.677Z,95.60
2018-11-25T13:59:31.539Z,80.67
2018-11-25T14:00:52.194Z,82.72
2018-11-25T14:02:01.685Z,104.07
2018-11-25T14:03:20.393Z,81.53
2018-11-25T14:04:29.020Z,98.52
2018-11-25T14:05:44.113Z,87.53
2018-11-25T14:08:11.815Z,93.50
2018-11-25T14:09:17.182Z,78.28
2018-11-25T14:10:34.300Z,83.92
2018-11-25T14:11:51.044Z,77.53
2018-11-25T14:13:19.098Z,82.10
2018-11-25T14:14:42.782Z,74.12
2018-11-25T14:16:01.285Z,73.55
2018-11-25T14:17:11.861Z,83.78
2018-11-25T14:18:18.017Z,81.45
2018-11-25T14:19:36.166Z,68.85
2018-11-25T14:20:45.451Z,69.77
2018-11-25T14:21:57.379Z,83.82
2018-11-25T14:23:09.276Z,78.70
2018-11-25T14:24:17.383Z,77.15
2018-11-25T14:25:36.780Z,80.77
2018-11-25T14:26:59.203Z,88.12
2018-11-25T14:28:09.145Z,92.88
2018-11-25T14:29:23.617Z,85.85
2018-11-25T14:30:56.748Z,94.07
2018-11-25T14:32:12.152Z,88.22
2018-11-25T14:33:21.941Z,73.62
2018-11-25T14:34:29.228Z,80.20